Current | Forecast
Updated: 9:00 PM JST on June 27, 2017
Observed at Toyama Airport, Japan
Temperature 70°F
Humidity 83%
Dew Point 64°F
Wind North at 5 mph
Pressure 29.92 in (Rising)
Conditions Mostly Cloudy
Visibility 6.2 miles
UV 0 out of 16
Clouds (FEW) : 3000 ft
Mostly Cloudy (BKN) : 6000 ft
Mostly Cloudy (BKN) : 9000 ft
Yesterday's Maximum 77°F
Yesterday's Minimum 64°F approx.
Yesterday's Cooling Degree Days 6 approx.
Sunrise4:33 AM JST
Sunset7:12 PM JST
Moon Rise7:50 AM JST
Moon Set9:49 PM JST
Moon PhaseMoon Phase
Waxing Crescent
Raw METARMETAR RJNT 271200Z 36004KT 320V050 9999 FEW030 BKN060 BKN090 21/18 Q1013


Monday
. High: 82° F.
Tuesday
. High: 78° F.
Wednesday
. High: 71° F.
Thursday
. High: 75° F.
Friday
. High: 75° F.
Saturday
. High: 71° F.
Sunday
. High: 75° F.
Monday
. High: 75° F.

Units: English | Metric

Find the Weather for any City, State or Zipcode, or Country:

U.S. State List | Severe Weather | Tropical Storms | Ski Conditions
United States | Canada | Central America | South America | Asia | Europe | Australia | Africa | Islands

Weather Underground

© Copyright 2017
The Weather Company, LLC